Time;durP1;ratioP1;P1;durP2;ratioP2;P2;SDS_P1;SDS_P2;PMS_P1;PMS_P2;Temp;Humidity;BMP_temperature;BMP_pressure;BME280_temperature;BME280_humidity;BME280_pressure;Samples;Min_cycle;Max_cycle;Signal;HPM_P1;HPM_P2
2021/05/28 00:00:48;;;;;;;4.90;4.40;;;;;;;;;;5069706;28;20495;-67
2021/05/28 00:03:14;;;;;;;6.45;4.63;;;;;;;;;;5071329;28;20024;-67
2021/05/28 00:05:39;;;;;;;6.45;4.05;;;;;;;;;;5071245;28;20032;-67
2021/05/28 00:08:04;;;;;;;5.45;4.93;;;;;;;;;;5068718;28;20112;-68
2021/05/28 00:10:30;;;;;;;4.80;4.22;;;;;;;;;;5071168;28;20107;-67
2021/05/28 00:12:55;;;;;;;5.35;4.85;;;;;;;;;;5071225;28;20047;-68
2021/05/28 00:15:20;;;;;;;6.20;5.18;;;;;;;;;;5071648;28;20032;-67
2021/05/28 00:17:45;;;;;;;6.40;5.80;;;;;;;;;;5068581;28;20016;-67
2021/05/28 00:20:12;;;;;;;5.93;4.72;;;;;;;;;;5071083;28;20510;-68
2021/05/28 00:22:37;;;;;;;5.07;4.53;;;;;;;;;;5070065;28;20074;-68
2021/05/28 00:25:03;;;;;;;4.85;4.25;;;;;;;;;;5070025;28;20024;-68
2021/05/28 00:27:30;;;;;;;5.15;4.65;;;;;;;;;;5067817;28;20025;-68
2021/05/28 00:29:56;;;;;;;7.90;4.90;;;;;;;;;;5070487;28;20052;-67
2021/05/28 00:32:21;;;;;;;6.57;5.13;;;;;;;;;;5071635;28;20029;-67
2021/05/28 00:34:49;;;;;;;6.18;5.20;;;;;;;;;;5069960;28;20028;-67
2021/05/28 00:37:14;;;;;;;5.82;4.50;;;;;;;;;;5068127;28;20041;-68
2021/05/28 00:39:39;;;;;;;5.32;4.93;;;;;;;;;;5070732;28;20115;-67
2021/05/28 00:42:04;;;;;;;5.78;4.35;;;;;;;;;;5071446;28;20467;-67
2021/05/28 00:44:31;;;;;;;5.03;4.53;;;;;;;;;;5070924;28;20027;-67
2021/05/28 00:46:57;;;;;;;8.30;5.38;;;;;;;;;;5066711;28;20058;-67
2021/05/28 00:49:22;;;;;;;5.55;5.07;;;;;;;;;;5070841;28;20024;-66
2021/05/28 00:51:47;;;;;;;5.53;5.03;;;;;;;;;;5071186;28;20070;-67
2021/05/28 00:54:12;;;;;;;5.53;5.03;;;;;;;;;;5069712;28;20115;-67
2021/05/28 00:56:38;;;;;;;5.93;5.15;;;;;;;;;;5068393;28;20052;-67
2021/05/28 00:59:03;;;;;;;6.35;5.45;;;;;;;;;;5073486;28;20020;-67
2021/05/28 01:01:28;;;;;;;5.80;5.20;;;;;;;;;;5074579;28;20464;-67
2021/05/28 01:03:54;;;;;;;6.28;5.25;;;;;;;;;;5074989;28;20024;-67
2021/05/28 01:06:19;;;;;;;5.55;5.05;;;;;;;;;;5073718;28;20111;-68
2021/05/28 01:08:44;;;;;;;7.95;5.88;;;;;;;;;;5068480;28;20035;-66
2021/05/28 01:11:10;;;;;;;6.40;5.47;;;;;;;;;;5074500;28;20531;-67
2021/05/28 01:13:35;;;;;;;5.97;5.20;;;;;;;;;;5072841;28;20029;-67
2021/05/28 01:16:00;;;;;;;6.03;4.80;;;;;;;;;;5074584;28;20023;-67
2021/05/28 01:18:26;;;;;;;5.78;5.05;;;;;;;;;;5061833;28;20020;-67
2021/05/28 01:20:51;;;;;;;5.03;4.35;;;;;;;;;;5072433;28;20036;-66
2021/05/28 01:23:16;;;;;;;6.35;5.70;;;;;;;;;;5073813;28;20364;-67
2021/05/28 01:25:42;;;;;;;6.90;5.72;;;;;;;;;;5074236;28;20289;-67
2021/05/28 01:28:07;;;;;;;7.57;4.88;;;;;;;;;;5077660;28;20039;-67
2021/05/28 01:30:32;;;;;;;6.13;4.80;;;;;;;;;;5073238;28;20028;-67
2021/05/28 01:32:57;;;;;;;7.50;5.95;;;;;;;;;;5073736;28;20021;-67
2021/05/28 01:35:23;;;;;;;6.85;5.47;;;;;;;;;;5073833;28;20111;-66
2021/05/28 01:37:48;;;;;;;6.45;5.65;;;;;;;;;;5071264;28;20080;-67
2021/05/28 01:40:14;;;;;;;7.20;5.50;;;;;;;;;;5073586;28;20032;-67
2021/05/28 01:42:39;;;;;;;7.13;6.20;;;;;;;;;;5073682;28;20082;-68
2021/05/28 01:45:05;;;;;;;6.13;5.53;;;;;;;;;;5074046;28;20032;-67
2021/05/28 01:47:31;;;;;;;6.15;5.22;;;;;;;;;;5070511;28;20108;-66
2021/05/28 01:49:56;;;;;;;5.75;5.10;;;;;;;;;;5073363;28;20115;-68
2021/05/28 01:52:25;;;;;;;7.53;5.30;;;;;;;;;;5073888;28;20020;-67
2021/05/28 01:54:51;;;;;;;7.05;4.78;;;;;;;;;;5073198;28;20024;-67
2021/05/28 01:57:17;;;;;;;6.88;5.93;;;;;;;;;;5070337;28;20017;-68
2021/05/28 01:59:43;;;;;;;6.57;4.43;;;;;;;;;;5073421;28;20388;-68
2021/05/28 02:02:08;;;;;;;8.40;6.35;;;;;;;;;;5073150;28;20017;-67
2021/05/28 02:04:33;;;;;;;7.80;5.57;;;;;;;;;;5073279;28;20013;-67
2021/05/28 02:06:59;;;;;;;7.78;6.00;;;;;;;;;;5070175;28;20697;-67
2021/05/28 02:09:24;;;;;;;6.60;5.28;;;;;;;;;;5072542;28;20031;-66
2021/05/28 02:11:50;;;;;;;7.60;5.30;;;;;;;;;;5073405;28;20019;-67
2021/05/28 02:14:15;;;;;;;6.85;5.40;;;;;;;;;;5073236;28;20016;-67
2021/05/28 02:16:41;;;;;;;7.07;5.78;;;;;;;;;;5070758;28;20566;-67
2021/05/28 02:19:07;;;;;;;7.30;6.50;;;;;;;;;;5072398;28;20033;-67
2021/05/28 02:21:33;;;;;;;7.35;6.07;;;;;;;;;;5072915;28;20036;-68
2021/05/28 02:23:58;;;;;;;7.75;6.55;;;;;;;;;;5073022;28;20028;-67
2021/05/28 02:26:24;;;;;;;8.75;6.80;;;;;;;;;;5072812;28;20464;-67
2021/05/28 02:28:49;;;;;;;9.50;7.07;;;;;;;;;;5068684;28;20537;-68
2021/05/28 02:31:14;;;;;;;8.23;6.03;;;;;;;;;;5072522;28;20021;-67
2021/05/28 02:33:39;;;;;;;10.77;7.70;;;;;;;;;;5072677;28;20024;-67
2021/05/28 02:36:06;;;;;;;10.95;6.93;;;;;;;;;;5073172;28;20471;-67
2021/05/28 02:38:31;;;;;;;7.93;5.75;;;;;;;;;;5069312;28;20484;-67
2021/05/28 02:40:56;;;;;;;9.63;6.82;;;;;;;;;;5071320;28;20030;-67
2021/05/28 02:43:22;;;;;;;11.93;7.47;;;;;;;;;;5072294;28;20062;-67
2021/05/28 02:45:47;;;;;;;11.05;7.18;;;;;;;;;;5072348;28;20419;-67
2021/05/28 02:48:12;;;;;;;7.82;6.35;;;;;;;;;;5069412;28;20107;-68
2021/05/28 02:50:38;;;;;;;6.95;5.85;;;;;;;;;;5072303;28;20157;-66
2021/05/28 02:53:03;;;;;;;10.38;7.07;;;;;;;;;;5072370;28;20108;-68
2021/05/28 02:55:29;;;;;;;7.05;6.30;;;;;;;;;;5070787;28;20082;-68
2021/05/28 02:57:54;;;;;;;9.38;7.15;;;;;;;;;;5069726;28;20372;-67
2021/05/28 03:00:21;;;;;;;8.05;5.70;;;;;;;;;;5072130;28;20020;-67
2021/05/28 03:02:46;;;;;;;8.18;6.75;;;;;;;;;;5074039;28;20024;-67
2021/05/28 03:05:11;;;;;;;7.15;5.97;;;;;;;;;;5072338;28;20029;-68
2021/05/28 03:07:37;;;;;;;9.25;6.60;;;;;;;;;;5069476;28;20020;-68
2021/05/28 03:10:03;;;;;;;9.20;6.43;;;;;;;;;;5072107;28;20054;-67
2021/05/28 03:12:28;;;;;;;8.88;7.00;;;;;;;;;;5071748;28;20035;-67
2021/05/28 03:14:53;;;;;;;8.85;7.32;;;;;;;;;;5071975;28;20031;-68
2021/05/28 03:17:18;;;;;;;7.63;6.55;;;;;;;;;;5069217;28;20020;-67
2021/05/28 03:19:45;;;;;;;8.82;6.43;;;;;;;;;;5070606;28;20027;-66
2021/05/28 03:24:39;;;;;;;7.88;6.55;;;;;;;;;;5072200;28;20028;-66
2021/05/28 03:27:04;;;;;;;7.78;6.80;;;;;;;;;;5068275;28;20163;-66
2021/05/28 03:29:30;;;;;;;8.63;6.88;;;;;;;;;;5071784;28;20021;-66
2021/05/28 03:31:55;;;;;;;7.38;6.30;;;;;;;;;;5071894;28;20032;-67
2021/05/28 03:34:20;;;;;;;8.75;7.25;;;;;;;;;;5071693;28;20013;-67
2021/05/28 03:36:45;;;;;;;9.38;7.18;;;;;;;;;;5068583;28;20113;-68
2021/05/28 03:39:11;;;;;;;9.15;5.75;;;;;;;;;;5071850;28;20016;-68
2021/05/28 03:41:36;;;;;;;9.95;6.18;;;;;;;;;;5071526;28;20028;-67
2021/05/28 03:44:01;;;;;;;8.30;6.43;;;;;;;;;;5070425;28;20460;-67
2021/05/28 03:46:27;;;;;;;7.07;6.38;;;;;;;;;;5071024;28;20383;-67
2021/05/28 03:48:52;;;;;;;7.63;6.82;;;;;;;;;;5069287;28;20059;-66
2021/05/28 03:51:17;;;;;;;5.00;4.50;;;;;;;;;;5071765;28;20052;-67
2021/05/28 03:53:43;;;;;;;10.80;7.30;;;;;;;;;;5071595;28;20048;-67
2021/05/28 03:56:08;;;;;;;8.02;7.15;;;;;;;;;;5071621;28;20027;-67
2021/05/28 03:58:33;;;;;;;8.20;5.85;;;;;;;;;;5068510;28;20384;-67
2021/05/28 04:00:58;;;;;;;7.38;6.30;;;;;;;;;;5071695;28;20017;-67
2021/05/28 04:03:24;;;;;;;8.40;5.05;;;;;;;;;;5070584;28;20016;-66
2021/05/28 04:05:49;;;;;;;8.88;6.15;;;;;;;;;;5071217;28;20024;-66
2021/05/28 04:08:14;;;;;;;9.75;6.75;;;;;;;;;;5068169;28;20021;-67
2021/05/28 04:10:39;;;;;;;7.72;6.13;;;;;;;;;;5071398;28;20016;-67
2021/05/28 04:13:04;;;;;;;3.00;2.65;;;;;;;;;;5071465;28;20035;-67
2021/05/28 04:15:30;;;;;;;7.00;6.15;;;;;;;;;;5071573;28;20452;-67
2021/05/28 04:17:55;;;;;;;8.13;5.32;;;;;;;;;;5068400;28;20071;-67
2021/05/28 04:20:20;;;;;;;7.25;4.50;;;;;;;;;;5070000;28;20071;-67
2021/05/28 04:22:45;;;;;;;7.57;5.88;;;;;;;;;;5104308;28;20025;-67
2021/05/28 04:25:11;;;;;;;7.88;5.95;;;;;;;;;;5070970;28;20697;-67
2021/05/28 04:27:36;;;;;;;8.98;6.35;;;;;;;;;;5068000;28;20078;-67
2021/05/28 04:30:01;;;;;;;6.53;5.80;;;;;;;;;;5071571;28;20404;-67
2021/05/28 04:32:27;;;;;;;8.35;5.50;;;;;;;;;;5072801;28;20025;-67
2021/05/28 04:34:52;;;;;;;7.50;5.90;;;;;;;;;;5074908;28;20475;-67
2021/05/28 04:37:17;;;;;;;8.23;5.50;;;;;;;;;;5071918;28;20119;-67
2021/05/28 04:39:42;;;;;;;7.35;5.53;;;;;;;;;;5074980;28;20047;-67
2021/05/28 04:42:08;;;;;;;5.88;3.03;;;;;;;;;;5074659;28;20081;-67
2021/05/28 04:44:33;;;;;;;6.72;5.10;;;;;;;;;;5087031;28;20031;-67
2021/05/28 04:46:58;;;;;;;7.88;6.03;;;;;;;;;;5071988;28;20404;-67
2021/05/28 04:49:24;;;;;;;3.42;3.13;;;;;;;;;;5074174;28;20066;-67
2021/05/28 04:51:49;;;;;;;3.42;2.88;;;;;;;;;;5074892;28;20074;-67
2021/05/28 04:54:15;;;;;;;4.05;2.80;;;;;;;;;;5074770;28;20363;-67
2021/05/28 04:56:40;;;;;;;4.82;2.70;;;;;;;;;;5070640;28;20391;-68
2021/05/28 04:59:06;;;;;;;3.63;3.17;;;;;;;;;;5074257;28;20028;-66
2021/05/28 05:01:31;;;;;;;6.25;5.57;;;;;;;;;;5072721;28;20035;-67
2021/05/28 05:03:56;;;;;;;7.07;5.60;;;;;;;;;;5073791;28;20055;-66
2021/05/28 05:06:21;;;;;;;3.70;2.97;;;;;;;;;;5074069;28;20017;-66
2021/05/28 05:08:46;;;;;;;5.15;4.63;;;;;;;;;;5069451;28;20020;-68
2021/05/28 05:11:12;;;;;;;7.30;6.57;;;;;;;;;;5073773;28;20021;-66
2021/05/28 05:13:37;;;;;;;8.30;6.22;;;;;;;;;;5072779;28;20422;-67
2021/05/28 05:16:03;;;;;;;8.15;7.35;;;;;;;;;;5074548;28;20387;-66
2021/05/28 05:18:28;;;;;;;7.95;7.00;;;;;;;;;;5070803;28;20448;-65
2021/05/28 05:20:53;;;;;;;5.60;4.97;;;;;;;;;;5081538;28;20108;-65
2021/05/28 05:23:19;;;;;;;7.13;6.05;;;;;;;;;;5074455;28;20012;-67
2021/05/28 05:25:44;;;;;;;8.65;7.85;;;;;;;;;;5074298;28;20032;-66
2021/05/28 05:28:09;;;;;;;8.00;7.20;;;;;;;;;;5070914;28;20450;-67
2021/05/28 05:30:34;;;;;;;6.93;6.22;;;;;;;;;;5074262;28;20020;-66
2021/05/28 05:33:00;;;;;;;9.18;7.57;;;;;;;;;;5073986;28;20024;-66
2021/05/28 05:35:25;;;;;;;6.28;5.50;;;;;;;;;;5070269;28;20044;-67
2021/05/28 05:37:50;;;;;;;9.10;8.13;;;;;;;;;;5051381;28;20124;-67
2021/05/28 05:40:16;;;;;;;7.75;7.03;;;;;;;;;;5067311;28;20388;-67
2021/05/28 05:42:41;;;;;;;10.18;8.70;;;;;;;;;;5072814;28;20203;-67
2021/05/28 05:45:07;;;;;;;7.60;6.82;;;;;;;;;;5072813;28;20400;-67
2021/05/28 05:47:33;;;;;;;8.50;7.20;;;;;;;;;;5068544;28;20116;-67
2021/05/28 05:49:58;;;;;;;9.10;8.20;;;;;;;;;;5065304;28;20482;-67
2021/05/28 05:52:23;;;;;;;5.90;5.40;;;;;;;;;;5069540;28;20391;-67
2021/05/28 05:54:49;;;;;;;7.82;7.10;;;;;;;;;;5073748;28;20023;-67
2021/05/28 05:57:14;;;;;;;8.93;7.95;;;;;;;;;;5079374;28;20041;-68
2021/05/28 05:59:39;;;;;;;8.10;6.97;;;;;;;;;;5073069;28;20036;-68
2021/05/28 06:02:04;;;;;;;7.45;6.75;;;;;;;;;;5073401;28;20029;-67
2021/05/28 06:04:30;;;;;;;7.45;6.75;;;;;;;;;;5070885;28;20017;-67
2021/05/28 06:06:55;;;;;;;5.82;5.35;;;;;;;;;;5070353;28;20056;-67
2021/05/28 06:09:20;;;;;;;7.85;6.95;;;;;;;;;;5072428;28;20017;-67
2021/05/28 06:11:45;;;;;;;7.15;6.10;;;;;;;;;;5064724;28;20020;-68
2021/05/28 06:14:11;;;;;;;7.65;6.95;;;;;;;;;;5073580;28;20210;-67
2021/05/28 06:16:36;;;;;;;7.82;7.10;;;;;;;;;;5069982;28;20130;-67
2021/05/28 06:19:02;;;;;;;6.40;5.80;;;;;;;;;;5072422;28;20020;-67
2021/05/28 06:21:27;;;;;;;6.78;6.18;;;;;;;;;;5093507;28;20020;-67
2021/05/28 06:23:52;;;;;;;7.07;6.38;;;;;;;;;;5093554;28;20041;-67
2021/05/28 06:26:17;;;;;;;5.10;4.60;;;;;;;;;;5092578;28;20422;-68
2021/05/28 06:28:43;;;;;;;5.60;5.13;;;;;;;;;;5070095;28;20108;-68
2021/05/28 06:31:08;;;;;;;5.43;5.03;;;;;;;;;;5073089;28;20144;-68
2021/05/28 06:33:33;;;;;;;5.22;3.75;;;;;;;;;;5073318;28;20103;-66
2021/05/28 06:35:59;;;;;;;7.13;6.53;;;;;;;;;;5072758;28;20025;-67
2021/05/28 06:38:24;;;;;;;7.22;6.28;;;;;;;;;;5066982;28;20040;-66
2021/05/28 06:40:49;;;;;;;7.82;6.68;;;;;;;;;;5073776;28;20479;-67
2021/05/28 06:43:14;;;;;;;8.63;7.82;;;;;;;;;;5072690;28;20478;-67
2021/05/28 06:45:40;;;;;;;8.75;7.82;;;;;;;;;;5068344;28;20021;-67
2021/05/28 06:48:05;;;;;;;10.60;9.43;;;;;;;;;;5064227;28;20411;-67
2021/05/28 06:50:31;;;;;;;10.25;9.00;;;;;;;;;;5092104;28;20035;-68
2021/05/28 06:52:56;;;;;;;10.35;9.30;;;;;;;;;;5077248;28;20032;-67
2021/05/28 06:55:21;;;;;;;8.15;7.35;;;;;;;;;;5071374;28;20379;-67
2021/05/28 06:57:47;;;;;;;11.85;10.60;;;;;;;;;;5070173;28;20051;-68
2021/05/28 07:00:12;;;;;;;6.07;3.88;;;;;;;;;;5071953;28;20032;-68
2021/05/28 07:02:37;;;;;;;10.27;9.27;;;;;;;;;;5072329;28;20494;-68
2021/05/28 07:05:03;;;;;;;8.98;6.72;;;;;;;;;;5057732;28;20025;-67
2021/05/28 07:07:28;;;;;;;10.73;9.68;;;;;;;;;;5082125;28;20032;-68
2021/05/28 07:09:54;;;;;;;10.23;9.13;;;;;;;;;;5072025;28;20032;-68
2021/05/28 07:12:19;;;;;;;11.23;10.23;;;;;;;;;;5072025;28;20020;-68
2021/05/28 07:14:44;;;;;;;7.40;6.05;;;;;;;;;;5070128;28;20025;-68
2021/05/28 07:17:09;;;;;;;7.60;6.90;;;;;;;;;;5069100;28;20115;-68
2021/05/28 07:19:35;;;;;;;6.30;4.55;;;;;;;;;;5071914;28;20074;-68
2021/05/28 07:22:00;;;;;;;7.18;6.38;;;;;;;;;;5070548;28;20024;-68
2021/05/28 07:24:25;;;;;;;4.80;3.75;;;;;;;;;;5072213;28;20519;-68
2021/05/28 07:26:50;;;;;;;8.73;6.18;;;;;;;;;;5065289;28;20029;-68
2021/05/28 07:29:16;;;;;;;8.43;7.63;;;;;;;;;;5071110;28;20103;-68
2021/05/28 07:31:41;;;;;;;3.90;2.80;;;;;;;;;;5077869;28;20028;-68
2021/05/28 07:34:06;;;;;;;5.88;5.25;;;;;;;;;;5065356;28;20073;-68
2021/05/28 07:36:32;;;;;;;7.30;6.28;;;;;;;;;;5067599;28;20387;-69
2021/05/28 07:38:57;;;;;;;3.90;2.88;;;;;;;;;;5069774;28;20059;-69
2021/05/28 07:41:22;;;;;;;8.93;6.00;;;;;;;;;;5068274;28;20017;-68
2021/05/28 07:43:48;;;;;;;7.10;6.38;;;;;;;;;;5077935;28;20158;-70
2021/05/28 07:46:13;;;;;;;8.00;7.28;;;;;;;;;;5071809;28;20441;-70
2021/05/28 07:48:38;;;;;;;8.10;5.47;;;;;;;;;;5061506;28;20429;-68
2021/05/28 07:51:04;;;;;;;2.65;2.28;;;;;;;;;;5101382;28;20115;-68
2021/05/28 07:53:29;;;;;;;4.50;4.10;;;;;;;;;;5059674;28;20028;-68
2021/05/28 07:55:58;;;;;;;5.43;4.93;;;;;;;;;;5070371;28;20103;-69
2021/05/28 07:58:23;;;;;;;5.85;5.13;;;;;;;;;;5068341;28;20017;-67
2021/05/28 08:00:49;;;;;;;7.57;6.80;;;;;;;;;;5068842;28;20426;-69
2021/05/28 08:03:14;;;;;;;7.10;6.40;;;;;;;;;;5104019;28;20059;-68
2021/05/28 08:05:40;;;;;;;8.20;7.40;;;;;;;;;;5070446;28;20052;-68
2021/05/28 08:08:10;;;;;;;7.03;6.43;;;;;;;;;;5074228;28;20313;-69
2021/05/28 08:10:36;;;;;;;6.13;5.57;;;;;;;;;;5071920;28;20048;-69
2021/05/28 08:13:01;;;;;;;4.78;4.25;;;;;;;;;;5075442;28;20090;-68
2021/05/28 08:15:27;;;;;;;3.17;2.88;;;;;;;;;;5066897;28;20013;-69
2021/05/28 08:17:52;;;;;;;3.90;3.42;;;;;;;;;;5090179;28;20021;-66
2021/05/28 08:20:17;;;;;;;4.07;3.78;;;;;;;;;;5065224;28;20037;-68
2021/05/28 08:22:44;;;;;;;4.13;3.58;;;;;;;;;;5071849;28;20063;-69
2021/05/28 08:25:09;;;;;;;4.13;3.00;;;;;;;;;;5098150;28;20743;-69
2021/05/28 08:27:35;;;;;;;1.42;1.30;;;;;;;;;;5092223;28;20103;-69
2021/05/28 08:30:00;;;;;;;2.47;1.02;;;;;;;;;;5075928;28;20025;-69
2021/05/28 08:32:25;;;;;;;3.42;2.60;;;;;;;;;;5082858;28;20382;-69
2021/05/28 08:34:51;;;;;;;2.58;2.17;;;;;;;;;;5080611;28;20446;-69
2021/05/28 08:37:16;;;;;;;1.98;1.85;;;;;;;;;;5073775;28;20535;-69
2021/05/28 08:39:41;;;;;;;1.98;1.88;;;;;;;;;;5082139;28;20107;-69
2021/05/28 08:42:09;;;;;;;1.60;1.40;;;;;;;;;;5071566;28;20029;-70
2021/05/28 08:44:35;;;;;;;1.73;1.02;;;;;;;;;;5078694;28;20043;-69
2021/05/28 08:47:00;;;;;;;3.20;1.40;;;;;;;;;;5069574;28;20670;-70
2021/05/28 08:49:25;;;;;;;0.88;0.52;;;;;;;;;;5072547;28;20103;-69
2021/05/28 08:51:50;;;;;;;1.65;1.40;;;;;;;;;;5075052;28;20027;-69
2021/05/28 08:54:17;;;;;;;1.83;1.73;;;;;;;;;;5065014;28;20024;-69
2021/05/28 08:56:45;;;;;;;1.55;1.45;;;;;;;;;;5054585;28;20043;-70
2021/05/28 08:59:11;;;;;;;2.35;1.30;;;;;;;;;;5070982;28;20017;-69
2021/05/28 09:01:36;;;;;;;1.23;1.00;;;;;;;;;;5054932;28;20492;-69
2021/05/28 09:04:03;;;;;;;3.30;1.27;;;;;;;;;;5055265;28;20279;-69
2021/05/28 09:06:37;;;;;;;2.50;1.50;;;;;;;;;;5053903;28;20013;-69
2021/05/28 09:09:09;;;;;;;3.50;1.90;;;;;;;;;;5056564;28;20028;-69
2021/05/28 09:11:48;;;;;;;2.42;2.15;;;;;;;;;;5057632;28;20055;-69
2021/05/28 09:14:27;;;;;;;2.58;2.38;;;;;;;;;;5076695;28;20024;-69
2021/05/28 09:16:52;;;;;;;2.08;1.48;;;;;;;;;;5098866;28;20380;-69
2021/05/28 09:19:22;;;;;;;2.60;1.05;;;;;;;;;;5059251;28;20017;-69
2021/05/28 09:21:53;;;;;;;2.00;1.30;;;;;;;;;;5073563;28;20020;-70
2021/05/28 09:24:26;;;;;;;3.08;2.42;;;;;;;;;;5074569;28;20028;-70
2021/05/28 09:26:52;;;;;;;2.30;2.13;;;;;;;;;;5068157;28;20216;-70
2021/05/28 09:29:18;;;;;;;3.10;2.90;;;;;;;;;;5072642;28;20016;-68
2021/05/28 09:31:43;;;;;;;2.67;2.47;;;;;;;;;;5069853;28;20115;-69
2021/05/28 09:34:08;;;;;;;3.65;3.40;;;;;;;;;;5070118;28;20112;-69
2021/05/28 09:36:38;;;;;;;3.20;1.55;;;;;;;;;;5071374;28;20031;-69
2021/05/28 09:39:06;;;;;;;2.05;1.88;;;;;;;;;;5072472;28;20116;-70
2021/05/28 09:41:51;;;;;;;1.98;1.73;;;;;;;;;;5073271;28;20017;-68
2021/05/28 09:44:18;;;;;;;1.90;1.80;;;;;;;;;;5069023;28;20020;-68
2021/05/28 09:47:03;;;;;;;1.67;1.58;;;;;;;;;;5090128;28;20646;-70
2021/05/28 09:49:30;;;;;;;2.45;2.05;;;;;;;;;;5069206;28;20055;-69
2021/05/28 09:52:15;;;;;;;2.53;2.33;;;;;;;;;;5064938;28;20476;-71
2021/05/28 09:54:54;;;;;;;2.20;1.92;;;;;;;;;;5068768;28;20032;-70
2021/05/28 09:57:28;;;;;;;2.45;1.98;;;;;;;;;;5060115;28;20064;-70
2021/05/28 09:59:54;;;;;;;1.83;1.73;;;;;;;;;;5063387;28;20028;-69
2021/05/28 10:02:43;;;;;;;2.97;2.42;;;;;;;;;;5066208;28;20024;-70
2021/05/28 10:05:06;;;;;;;2.58;1.90;;;;;;;;;;5075245;28;20090;-69
2021/05/28 10:07:31;;;;;;;2.35;1.55;;;;;;;;;;5068893;28;20024;-70
2021/05/28 10:09:57;;;;;;;2.05;1.48;;;;;;;;;;5072580;28;20044;-69
2021/05/28 10:12:23;;;;;;;1.42;1.05;;;;;;;;;;5070928;28;20027;-69
2021/05/28 10:14:49;;;;;;;2.63;1.58;;;;;;;;;;5071366;28;20455;-70
2021/05/28 10:17:18;;;;;;;1.58;1.23;;;;;;;;;;5067453;28;20044;-70
2021/05/28 10:19:47;;;;;;;1.30;1.20;;;;;;;;;;5071342;28;20477;-71
2021/05/28 10:22:13;;;;;;;2.22;1.80;;;;;;;;;;5073018;28;20017;-70
2021/05/28 10:24:38;;;;;;;1.70;1.60;;;;;;;;;;5071636;28;20020;-71
2021/05/28 10:27:03;;;;;;;2.17;2.00;;;;;;;;;;5069865;28;20495;-70
2021/05/28 10:29:29;;;;;;;0.90;0.90;;;;;;;;;;5067980;28;20012;-70
2021/05/28 10:31:56;;;;;;;1.33;0.60;;;;;;;;;;5070687;28;20031;-71
2021/05/28 10:34:29;;;;;;;2.38;1.20;;;;;;;;;;5067855;28;20024;-71
2021/05/28 10:36:57;;;;;;;2.47;1.40;;;;;;;;;;5067535;28;20265;-70
2021/05/28 10:39:23;;;;;;;1.75;1.08;;;;;;;;;;5066035;28;20096;-67
2021/05/28 10:41:54;;;;;;;1.05;0.57;;;;;;;;;;5068550;28;20107;-70
2021/05/28 10:44:22;;;;;;;0.90;0.82;;;;;;;;;;5070845;28;20479;-71
2021/05/28 10:47:16;;;;;;;1.13;0.68;;;;;;;;;;5066591;28;20062;-70
2021/05/28 10:49:45;;;;;;;1.23;0.50;;;;;;;;;;5072914;28;20037;-70
2021/05/28 10:52:13;;;;;;;0.98;0.70;;;;;;;;;;5066840;28;20053;-70
2021/05/28 10:54:43;;;;;;;1.52;0.57;;;;;;;;;;5071891;28;20379;-70
2021/05/28 10:57:23;;;;;;;1.27;0.60;;;;;;;;;;5072690;28;20012;-71
2021/05/28 10:59:51;;;;;;;0.80;0.50;;;;;;;;;;5068983;28;20027;-70
2021/05/28 11:02:36;;;;;;;0.70;0.47;;;;;;;;;;5072336;28;20016;-70
2021/05/28 11:05:01;;;;;;;;;;;;;;;;;;5072611;28;20472;-71
2021/05/28 11:07:33;;;;;;;1.00;0.60;;;;;;;;;;5067869;28;20392;-70
2021/05/28 11:09:58;;;;;;;1.67;0.80;;;;;;;;;;5069037;28;20023;-70
2021/05/28 11:12:26;;;;;;;1.40;0.60;;;;;;;;;;5069410;28;20028;-69
2021/05/28 11:14:58;;;;;;;2.42;0.70;;;;;;;;;;5070922;28;20017;-70
2021/05/28 11:17:23;;;;;;;1.30;0.70;;;;;;;;;;5066153;28;20349;-70
2021/05/28 11:19:51;;;;;;;0.98;0.70;;;;;;;;;;5072110;28;20111;-69
2021/05/28 11:22:35;;;;;;;1.52;0.50;;;;;;;;;;5101270;28;20506;-69
2021/05/28 11:25:19;;;;;;;1.65;0.50;;;;;;;;;;5070765;28;20025;-69
2021/05/28 11:27:51;;;;;;;1.55;0.50;;;;;;;;;;5060887;28;20060;-71
2021/05/28 11:30:16;;;;;;;4.00;0.65;;;;;;;;;;5069982;28;20023;-70
2021/05/28 11:32:45;;;;;;;1.27;0.50;;;;;;;;;;5066271;28;20025;-68
2021/05/28 11:35:16;;;;;;;0.57;0.47;;;;;;;;;;5069956;28;20025;-70
2021/05/28 11:37:43;;;;;;;1.17;0.50;;;;;;;;;;5083548;28;20240;-70
2021/05/28 11:40:11;;;;;;;1.23;0.38;;;;;;;;;;5089471;28;20077;-70
2021/05/28 11:42:39;;;;;;;2.08;0.50;;;;;;;;;;5071027;28;20016;-68
2021/05/28 11:45:06;;;;;;;1.23;0.40;;;;;;;;;;5067832;28;20042;-69
2021/05/28 11:47:37;;;;;;;2.42;0.30;;;;;;;;;;5069754;28;20031;-70
2021/05/28 11:50:03;;;;;;;2.67;0.43;;;;;;;;;;5100445;28;20025;-71
2021/05/28 11:52:29;;;;;;;2.40;0.47;;;;;;;;;;5067648;28;20046;-70
2021/05/28 11:55:11;;;;;;;1.48;0.38;;;;;;;;;;5072277;28;20016;-70
2021/05/28 11:57:36;;;;;;;1.10;0.50;;;;;;;;;;5062710;28;20491;-70
2021/05/28 12:00:06;;;;;;;1.05;0.40;;;;;;;;;;5073204;28;20066;-69
2021/05/28 12:02:31;;;;;;;0.47;0.40;;;;;;;;;;5072330;28;20020;-70
2021/05/28 12:04:57;;;;;;;1.80;0.40;;;;;;;;;;5071029;28;20021;-70
2021/05/28 12:07:26;;;;;;;1.10;0.40;;;;;;;;;;5068231;28;20078;-69
2021/05/28 12:10:18;;;;;;;2.35;0.40;;;;;;;;;;5071572;28;20024;-70
2021/05/28 12:12:56;;;;;;;1.05;0.70;;;;;;;;;;5069563;28;20119;-70
2021/05/28 12:15:22;;;;;;;1.30;0.63;;;;;;;;;;5067392;28;20066;-71
2021/05/28 12:17:48;;;;;;;1.63;0.52;;;;;;;;;;5068363;28;20023;-71
2021/05/28 12:20:21;;;;;;;0.70;0.50;;;;;;;;;;5070461;28;20020;-71
2021/05/28 12:22:56;;;;;;;1.30;0.57;;;;;;;;;;5081697;28;20035;-71
2021/05/28 12:25:21;;;;;;;1.38;0.40;;;;;;;;;;5073035;28;20066;-70
2021/05/28 12:27:46;;;;;;;0.77;0.40;;;;;;;;;;5078239;28;20476;-71
2021/05/28 12:30:14;;;;;;;1.70;0.60;;;;;;;;;;5070912;28;20498;-70
2021/05/28 12:32:39;;;;;;;1.50;0.40;;;;;;;;;;5069190;28;20652;-71
2021/05/28 12:35:05;;;;;;;1.77;0.63;;;;;;;;;;5071380;28;20021;-70
2021/05/28 12:37:30;;;;;;;6.38;1.00;;;;;;;;;;5069615;28;20036;-67
2021/05/28 12:40:06;;;;;;;5.95;1.08;;;;;;;;;;5074663;28;20032;-69
2021/05/28 12:42:31;;;;;;;1.17;0.55;;;;;;;;;;5073926;28;20023;-69
2021/05/28 12:45:09;;;;;;;19.42;2.30;;;;;;;;;;5067470;28;20028;-71
2021/05/28 12:47:44;;;;;;;17.10;1.95;;;;;;;;;;5069122;28;20025;-72
2021/05/28 12:50:09;;;;;;;;;;;;;;;;;;5070352;28;20020;-69
2021/05/28 12:52:34;;;;;;;3.05;0.25;;;;;;;;;;5080430;28;20006;-71
2021/05/28 12:55:00;;;;;;;1.98;0.88;;;;;;;;;;5079817;28;20028;-70
2021/05/28 12:57:25;;;;;;;1.95;1.00;;;;;;;;;;5068349;28;20548;-71
2021/05/28 12:59:51;;;;;;;2.42;1.00;;;;;;;;;;5073562;28;20021;-72
2021/05/28 13:02:18;;;;;;;1.45;0.90;;;;;;;;;;5072167;28;20043;-72
2021/05/28 13:04:44;;;;;;;2.22;1.05;;;;;;;;;;5105053;27;20024;-71
2021/05/28 13:07:10;;;;;;;1.38;0.88;;;;;;;;;;5084271;28;20027;-71
2021/05/28 13:09:35;;;;;;;1.88;1.25;;;;;;;;;;5073092;28;20020;-72
2021/05/28 13:12:04;;;;;;;0.90;0.55;;;;;;;;;;5074928;28;20020;-72
2021/05/28 13:14:52;;;;;;;1.45;0.82;;;;;;;;;;5076263;28;20016;-72
2021/05/28 13:17:30;;;;;;;2.58;0.75;;;;;;;;;;5062814;28;20025;-74
2021/05/28 13:19:56;;;;;;;1.40;0.95;;;;;;;;;;5072784;28;20375;-72
2021/05/28 13:22:31;;;;;;;2.58;1.02;;;;;;;;;;5079153;28;20012;-72
2021/05/28 13:24:56;;;;;;;1.35;0.63;;;;;;;;;;5068520;28;20024;-71
2021/05/28 13:27:22;;;;;;;1.35;0.68;;;;;;;;;;5068073;28;20028;-71
2021/05/28 13:29:49;;;;;;;1.08;0.60;;;;;;;;;;5079312;28;20025;-71
2021/05/28 13:32:18;;;;;;;1.10;0.47;;;;;;;;;;5071237;28;20100;-69
2021/05/28 13:34:44;;;;;;;1.10;0.82;;;;;;;;;;5066705;28;20023;-71
2021/05/28 13:37:09;;;;;;;1.40;0.63;;;;;;;;;;5073507;28;20044;-71
2021/05/28 13:39:34;;;;;;;0.60;0.50;;;;;;;;;;5074631;28;20020;-70
2021/05/28 13:41:59;;;;;;;2.10;0.60;;;;;;;;;;5072031;28;20267;-71
2021/05/28 13:44:24;;;;;;;1.65;0.70;;;;;;;;;;5080197;28;20422;-71
2021/05/28 13:46:50;;;;;;;0.90;0.40;;;;;;;;;;5084405;28;20326;-69
2021/05/28 13:49:15;;;;;;;1.17;0.68;;;;;;;;;;5065994;28;20275;-71
2021/05/28 13:51:40;;;;;;;1.27;0.60;;;;;;;;;;5072920;28;20021;-70
2021/05/28 13:54:05;;;;;;;1.58;0.60;;;;;;;;;;5074592;28;20301;-71
2021/05/28 13:56:31;;;;;;;2.70;0.68;;;;;;;;;;5073331;28;20025;-71
2021/05/28 13:58:56;;;;;;;1.87;0.60;;;;;;;;;;5074650;28;20017;-71
2021/05/28 14:01:21;;;;;;;1.42;0.82;;;;;;;;;;5102691;28;20271;-70
2021/05/28 14:03:46;;;;;;;1.25;0.50;;;;;;;;;;5072227;28;20020;-71
2021/05/28 14:06:12;;;;;;;1.05;0.50;;;;;;;;;;5068037;28;20027;-70
2021/05/28 14:08:37;;;;;;;1.67;0.40;;;;;;;;;;5073336;28;20102;-71
2021/05/28 14:11:02;;;;;;;0.30;0.30;;;;;;;;;;5075939;28;20134;-71
2021/05/28 14:13:30;;;;;;;0.95;0.50;;;;;;;;;;5072716;28;20027;-71
2021/05/28 14:15:55;;;;;;;2.28;0.50;;;;;;;;;;5076821;28;20013;-71
2021/05/28 14:18:21;;;;;;;1.17;0.40;;;;;;;;;;5074645;28;20027;-71
2021/05/28 14:20:46;;;;;;;1.50;0.40;;;;;;;;;;5074249;28;20270;-71
2021/05/28 14:23:11;;;;;;;1.42;0.40;;;;;;;;;;5071369;28;20730;-72
2021/05/28 14:25:37;;;;;;;0.60;0.40;;;;;;;;;;5078474;28;20036;-68
2021/05/28 14:28:03;;;;;;;1.77;0.57;;;;;;;;;;5074735;28;20017;-72
2021/05/28 14:30:30;;;;;;;1.05;0.55;;;;;;;;;;5075927;28;20027;-71
2021/05/28 14:32:55;;;;;;;1.27;0.60;;;;;;;;;;5077200;28;20031;-71
2021/05/28 14:35:22;;;;;;;0.80;0.55;;;;;;;;;;5068201;28;20028;-71
2021/05/28 14:37:48;;;;;;;1.45;0.47;;;;;;;;;;5069465;28;20450;-67
2021/05/28 14:40:14;;;;;;;0.80;0.50;;;;;;;;;;5066117;28;20043;-71
2021/05/28 14:42:39;;;;;;;1.60;0.65;;;;;;;;;;5070958;28;20028;-71